sensor_id;sensor_type;location;lat;lon;timestamp;pressure;altitude;pressure_sealevel;temperature;humidity
55066;BME280;40964;42.114;24.220;2024-02-26T00:01:27;97435.50;;;9.60;99.09
55066;BME280;40964;42.114;24.220;2024-02-26T00:03:53;97432.81;;;9.66;98.71
55066;BME280;40964;42.114;24.220;2024-02-26T00:06:19;97401.38;;;9.42;99.25
55066;BME280;40964;42.114;24.220;2024-02-26T00:08:45;97436.81;;;9.69;99.58
55066;BME280;40964;42.114;24.220;2024-02-26T00:11:10;97442.94;;;9.81;99.28
55066;BME280;40964;42.114;24.220;2024-02-26T00:13:36;97450.63;;;9.64;98.63
55066;BME280;40964;42.114;24.220;2024-02-26T00:16:02;97455.00;;;9.71;97.19
55066;BME280;40964;42.114;24.220;2024-02-26T00:18:28;97436.16;;;9.74;96.39
55066;BME280;40964;42.114;24.220;2024-02-26T00:20:53;97436.63;;;9.71;97.00
55066;BME280;40964;42.114;24.220;2024-02-26T00:23:19;97434.00;;;9.71;96.26
55066;BME280;40964;42.114;24.220;2024-02-26T00:25:44;97432.97;;;9.72;96.15
55066;BME280;40964;42.114;24.220;2024-02-26T00:28:10;97437.41;;;9.71;96.08
55066;BME280;40964;42.114;24.220;2024-02-26T00:30:36;97438.91;;;9.79;96.21
55066;BME280;40964;42.114;24.220;2024-02-26T00:33:01;97444.56;;;9.82;96.01
55066;BME280;40964;42.114;24.220;2024-02-26T00:35:27;97446.69;;;9.74;96.27
55066;BME280;40964;42.114;24.220;2024-02-26T00:37:52;97435.28;;;9.61;97.00
55066;BME280;40964;42.114;24.220;2024-02-26T00:40:18;97434.78;;;9.53;97.23
55066;BME280;40964;42.114;24.220;2024-02-26T00:42:43;97422.75;;;9.45;97.57
55066;BME280;40964;42.114;24.220;2024-02-26T00:45:11;97437.41;;;9.53;97.94
55066;BME280;40964;42.114;24.220;2024-02-26T00:47:37;97433.81;;;9.47;97.67
55066;BME280;40964;42.114;24.220;2024-02-26T00:50:03;97426.97;;;9.46;98.01
55066;BME280;40964;42.114;24.220;2024-02-26T00:52:28;97426.41;;;9.44;98.13
55066;BME280;40964;42.114;24.220;2024-02-26T00:54:54;97421.56;;;9.41;98.00
55066;BME280;40964;42.114;24.220;2024-02-26T00:57:19;97418.06;;;9.29;98.73
55066;BME280;40964;42.114;24.220;2024-02-26T00:59:45;97418.13;;;9.41;98.35
55066;BME280;40964;42.114;24.220;2024-02-26T01:02:10;97409.03;;;9.43;98.20
55066;BME280;40964;42.114;24.220;2024-02-26T01:04:35;97418.44;;;9.51;97.44
55066;BME280;40964;42.114;24.220;2024-02-26T01:07:01;97424.28;;;9.53;97.59
55066;BME280;40964;42.114;24.220;2024-02-26T01:09:26;97424.88;;;9.55;97.21
55066;BME280;40964;42.114;24.220;2024-02-26T01:11:52;97425.22;;;9.58;96.87
55066;BME280;40964;42.114;24.220;2024-02-26T01:14:17;97425.09;;;9.53;96.68
55066;BME280;40964;42.114;24.220;2024-02-26T01:16:43;97421.94;;;9.45;96.05
55066;BME280;40964;42.114;24.220;2024-02-26T01:19:08;97414.41;;;9.30;96.92
55066;BME280;40964;42.114;24.220;2024-02-26T01:21:33;97415.72;;;9.21;97.48
55066;BME280;40964;42.114;24.220;2024-02-26T01:23:59;97412.94;;;9.16;98.20
55066;BME280;40964;42.114;24.220;2024-02-26T01:26:24;97410.25;;;9.22;98.12
55066;BME280;40964;42.114;24.220;2024-02-26T01:28:50;97407.00;;;9.27;97.96
55066;BME280;40964;42.114;24.220;2024-02-26T01:31:15;97403.47;;;9.33;97.35
55066;BME280;40964;42.114;24.220;2024-02-26T01:33:41;97400.22;;;9.37;97.29
55066;BME280;40964;42.114;24.220;2024-02-26T01:36:06;97390.66;;;9.43;96.96
55066;BME280;40964;42.114;24.220;2024-02-26T01:38:32;97391.84;;;9.47;96.96
55066;BME280;40964;42.114;24.220;2024-02-26T01:40:57;97392.56;;;9.54;96.85
55066;BME280;40964;42.114;24.220;2024-02-26T01:43:22;97395.19;;;9.54;96.57
55066;BME280;40964;42.114;24.220;2024-02-26T01:45:48;97380.25;;;9.55;97.25
55066;BME280;40964;42.114;24.220;2024-02-26T01:48:13;97383.72;;;9.49;97.43
55066;BME280;40964;42.114;24.220;2024-02-26T01:50:40;97388.34;;;9.53;97.56
55066;BME280;40964;42.114;24.220;2024-02-26T01:53:06;97380.59;;;9.58;96.99
55066;BME280;40964;42.114;24.220;2024-02-26T01:55:32;97375.34;;;9.58;97.17
55066;BME280;40964;42.114;24.220;2024-02-26T01:57:58;97376.28;;;9.64;97.95
55066;BME280;40964;42.114;24.220;2024-02-26T02:00:25;97379.94;;;9.63;97.80
55066;BME280;40964;42.114;24.220;2024-02-26T02:02:51;97369.16;;;9.71;97.24
55066;BME280;40964;42.114;24.220;2024-02-26T02:05:18;97371.44;;;9.79;96.93
55066;BME280;40964;42.114;24.220;2024-02-26T02:07:45;97370.06;;;9.77;95.47
55066;BME280;40964;42.114;24.220;2024-02-26T02:10:13;97362.72;;;9.67;95.78
55066;BME280;40964;42.114;24.220;2024-02-26T02:12:39;97368.75;;;9.67;95.64
55066;BME280;40964;42.114;24.220;2024-02-26T02:15:05;97358.94;;;9.63;96.65
55066;BME280;40964;42.114;24.220;2024-02-26T02:17:31;97363.97;;;9.64;96.94
55066;BME280;40964;42.114;24.220;2024-02-26T02:19:57;97369.00;;;9.66;96.17
55066;BME280;40964;42.114;24.220;2024-02-26T02:22:22;97371.16;;;9.69;96.26
55066;BME280;40964;42.114;24.220;2024-02-26T02:24:49;97363.09;;;9.71;95.88
55066;BME280;40964;42.114;24.220;2024-02-26T02:27:14;97364.47;;;9.73;96.20
55066;BME280;40964;42.114;24.220;2024-02-26T02:29:40;97371.09;;;9.76;96.52
55066;BME280;40964;42.114;24.220;2024-02-26T02:32:06;97385.59;;;9.78;95.98
55066;BME280;40964;42.114;24.220;2024-02-26T02:34:32;97377.94;;;9.77;96.18
55066;BME280;40964;42.114;24.220;2024-02-26T02:36:57;97386.13;;;9.68;96.00
55066;BME280;40964;42.114;24.220;2024-02-26T02:39:23;97390.34;;;9.70;96.38
55066;BME280;40964;42.114;24.220;2024-02-26T02:41:48;97387.81;;;9.63;97.06
55066;BME280;40964;42.114;24.220;2024-02-26T02:44:14;97390.81;;;9.66;97.26
55066;BME280;40964;42.114;24.220;2024-02-26T02:46:39;97388.75;;;9.68;96.76
55066;BME280;40964;42.114;24.220;2024-02-26T02:49:09;97395.81;;;9.68;96.71
55066;BME280;40964;42.114;24.220;2024-02-26T02:51:35;97394.91;;;9.62;96.28
55066;BME280;40964;42.114;24.220;2024-02-26T02:54:01;97400.72;;;9.64;96.51
55066;BME280;40964;42.114;24.220;2024-02-26T02:56:26;97401.53;;;9.65;96.46
55066;BME280;40964;42.114;24.220;2024-02-26T02:58:52;97395.31;;;9.59;96.09
55066;BME280;40964;42.114;24.220;2024-02-26T03:01:17;97396.06;;;9.48;96.46
55066;BME280;40964;42.114;24.220;2024-02-26T03:03:43;97397.53;;;9.44;96.43
55066;BME280;40964;42.114;24.220;2024-02-26T03:06:08;97394.22;;;9.49;96.58
55066;BME280;40964;42.114;24.220;2024-02-26T03:08:33;97380.53;;;9.47;96.95
55066;BME280;40964;42.114;24.220;2024-02-26T03:11:03;97393.88;;;9.45;97.47
55066;BME280;40964;42.114;24.220;2024-02-26T03:13:29;97387.59;;;9.46;97.90
55066;BME280;40964;42.114;24.220;2024-02-26T03:15:54;97386.13;;;9.50;97.54
55066;BME280;40964;42.114;24.220;2024-02-26T03:18:20;97389.56;;;9.51;97.15
55066;BME280;40964;42.114;24.220;2024-02-26T03:20:45;97388.19;;;9.48;97.09
55066;BME280;40964;42.114;24.220;2024-02-26T03:23:11;97377.84;;;9.53;96.60
55066;BME280;40964;42.114;24.220;2024-02-26T03:25:42;97381.78;;;9.44;96.93
55066;BME280;40964;42.114;24.220;2024-02-26T03:28:07;97381.63;;;9.39;97.67
55066;BME280;40964;42.114;24.220;2024-02-26T03:30:33;97382.66;;;9.38;97.79
55066;BME280;40964;42.114;24.220;2024-02-26T03:32:58;97389.28;;;9.41;97.52
55066;BME280;40964;42.114;24.220;2024-02-26T03:35:24;97404.28;;;9.33;98.06
55066;BME280;40964;42.114;24.220;2024-02-26T03:37:49;97386.06;;;9.20;99.07
55066;BME280;40964;42.114;24.220;2024-02-26T03:40:16;97388.09;;;9.18;99.33
55066;BME280;40964;42.114;24.220;2024-02-26T03:42:43;97392.63;;;9.29;99.51
55066;BME280;40964;42.114;24.220;2024-02-26T03:45:09;97398.00;;;9.34;99.83
55066;BME280;40964;42.114;24.220;2024-02-26T03:47:35;97392.75;;;9.34;100.00
55066;BME280;40964;42.114;24.220;2024-02-26T03:50:00;97397.00;;;9.35;100.00
55066;BME280;40964;42.114;24.220;2024-02-26T03:52:26;97385.91;;;9.33;100.00
55066;BME280;40964;42.114;24.220;2024-02-26T03:54:51;97384.88;;;9.34;100.00
55066;BME280;40964;42.114;24.220;2024-02-26T03:57:16;97397.81;;;9.36;100.00
55066;BME280;40964;42.114;24.220;2024-02-26T03:59:42;97391.53;;;9.37;100.00
55066;BME280;40964;42.114;24.220;2024-02-26T04:02:07;97398.16;;;9.39;100.00
55066;BME280;40964;42.114;24.220;2024-02-26T04:04:34;97387.84;;;9.45;100.00
55066;BME280;40964;42.114;24.220;2024-02-26T04:07:00;97401.66;;;9.52;100.00
55066;BME280;40964;42.114;24.220;2024-02-26T04:09:25;97397.00;;;9.54;100.00
55066;BME280;40964;42.114;24.220;2024-02-26T04:11:51;97399.63;;;9.54;99.86
55066;BME280;40964;42.114;24.220;2024-02-26T04:14:16;97396.41;;;9.52;100.00
55066;BME280;40964;42.114;24.220;2024-02-26T04:16:42;97393.72;;;9.58;99.81
55066;BME280;40964;42.114;24.220;2024-02-26T04:19:07;97394.91;;;9.62;99.22
55066;BME280;40964;42.114;24.220;2024-02-26T04:21:33;97389.28;;;9.59;98.99
55066;BME280;40964;42.114;24.220;2024-02-26T04:23:59;97391.88;;;9.59;98.68
55066;BME280;40964;42.114;24.220;2024-02-26T04:26:28;97388.34;;;9.53;99.05
55066;BME280;40964;42.114;24.220;2024-02-26T04:28:54;97379.72;;;9.46;98.90
55066;BME280;40964;42.114;24.220;2024-02-26T04:31:20;97389.56;;;9.51;99.11
55066;BME280;40964;42.114;24.220;2024-02-26T04:33:45;97388.91;;;9.55;98.32
55066;BME280;40964;42.114;24.220;2024-02-26T04:36:14;97385.72;;;9.53;98.12
55066;BME280;40964;42.114;24.220;2024-02-26T04:38:41;97372.94;;;9.57;98.10
55066;BME280;40964;42.114;24.220;2024-02-26T04:41:06;97364.03;;;9.58;98.33
55066;BME280;40964;42.114;24.220;2024-02-26T04:43:31;97362.81;;;9.42;99.53
55066;BME280;40964;42.114;24.220;2024-02-26T04:45:57;97383.66;;;9.37;99.65
55066;BME280;40964;42.114;24.220;2024-02-26T04:48:22;97394.53;;;9.41;99.97
55066;BME280;40964;42.114;24.220;2024-02-26T04:50:48;97381.03;;;9.37;100.00
55066;BME280;40964;42.114;24.220;2024-02-26T04:53:13;97378.84;;;9.34;100.00
55066;BME280;40964;42.114;24.220;2024-02-26T04:55:39;97375.06;;;9.30;100.00
55066;BME280;40964;42.114;24.220;2024-02-26T04:58:04;97376.22;;;9.34;100.00
55066;BME280;40964;42.114;24.220;2024-02-26T05:00:30;97375.63;;;9.32;100.00
55066;BME280;40964;42.114;24.220;2024-02-26T05:02:55;97387.72;;;9.33;100.00
55066;BME280;40964;42.114;24.220;2024-02-26T05:05:20;97399.25;;;9.32;100.00
55066;BME280;40964;42.114;24.220;2024-02-26T05:07:46;97407.28;;;9.37;100.00
55066;BME280;40964;42.114;24.220;2024-02-26T05:10:11;97415.69;;;9.46;99.86
55066;BME280;40964;42.114;24.220;2024-02-26T05:12:37;97412.38;;;9.50;99.73
55066;BME280;40964;42.114;24.220;2024-02-26T05:15:06;97414.72;;;9.58;99.15
55066;BME280;40964;42.114;24.220;2024-02-26T05:17:31;97415.16;;;9.55;99.60
55066;BME280;40964;42.114;24.220;2024-02-26T05:19:57;97420.63;;;9.54;99.32
55066;BME280;40964;42.114;24.220;2024-02-26T05:22:22;97399.78;;;9.41;100.00
55066;BME280;40964;42.114;24.220;2024-02-26T05:24:47;97417.63;;;9.50;100.00
55066;BME280;40964;42.114;24.220;2024-02-26T05:27:13;97417.06;;;9.48;100.00
55066;BME280;40964;42.114;24.220;2024-02-26T05:29:38;97408.44;;;9.41;99.68
55066;BME280;40964;42.114;24.220;2024-02-26T05:32:05;97408.31;;;9.36;99.33
55066;BME280;40964;42.114;24.220;2024-02-26T05:34:30;97410.63;;;9.26;99.60
55066;BME280;40964;42.114;24.220;2024-02-26T05:36:56;97415.66;;;9.27;100.00
55066;BME280;40964;42.114;24.220;2024-02-26T05:39:21;97416.81;;;9.31;100.00
55066;BME280;40964;42.114;24.220;2024-02-26T05:41:47;97428.06;;;9.38;100.00
55066;BME280;40964;42.114;24.220;2024-02-26T05:44:12;97426.81;;;9.41;100.00
55066;BME280;40964;42.114;24.220;2024-02-26T05:46:39;97429.44;;;9.41;100.00
55066;BME280;40964;42.114;24.220;2024-02-26T05:49:05;97433.53;;;9.37;100.00
55066;BME280;40964;42.114;24.220;2024-02-26T05:51:31;97435.88;;;9.45;99.30
55066;BME280;40964;42.114;24.220;2024-02-26T05:53:56;97441.34;;;9.44;98.95
55066;BME280;40964;42.114;24.220;2024-02-26T05:56:23;97439.00;;;9.35;99.31
55066;BME280;40964;42.114;24.220;2024-02-26T05:58:48;97440.22;;;9.33;99.41
55066;BME280;40964;42.114;24.220;2024-02-26T06:03:48;97447.22;;;9.21;99.65
55066;BME280;40964;42.114;24.220;2024-02-26T06:06:14;97444.69;;;9.07;100.00
55066;BME280;40964;42.114;24.220;2024-02-26T06:08:42;97456.19;;;9.06;100.00
55066;BME280;40964;42.114;24.220;2024-02-26T06:11:07;97456.00;;;9.08;100.00
55066;BME280;40964;42.114;24.220;2024-02-26T06:13:34;97452.38;;;9.09;100.00
55066;BME280;40964;42.114;24.220;2024-02-26T06:15:59;97456.94;;;9.14;100.00
55066;BME280;40964;42.114;24.220;2024-02-26T06:18:24;97464.31;;;9.23;100.00
55066;BME280;40964;42.114;24.220;2024-02-26T06:20:50;97458.81;;;9.31;100.00
55066;BME280;40964;42.114;24.220;2024-02-26T06:23:15;97453.50;;;9.38;100.00
55066;BME280;40964;42.114;24.220;2024-02-26T06:25:41;97461.22;;;9.51;100.00
55066;BME280;40964;42.114;24.220;2024-02-26T06:28:08;97449.72;;;9.52;100.00
55066;BME280;40964;42.114;24.220;2024-02-26T06:30:33;97458.75;;;9.38;100.00
55066;BME280;40964;42.114;24.220;2024-02-26T06:33:00;97470.50;;;9.35;100.00
55066;BME280;40964;42.114;24.220;2024-02-26T06:35:25;97473.38;;;9.27;100.00
55066;BME280;40964;42.114;24.220;2024-02-26T06:37:51;97481.28;;;9.46;100.00
55066;BME280;40964;42.114;24.220;2024-02-26T06:40:21;97478.91;;;9.44;100.00
55066;BME280;40964;42.114;24.220;2024-02-26T06:42:46;97476.84;;;9.46;100.00
55066;BME280;40964;42.114;24.220;2024-02-26T06:45:12;97479.78;;;9.56;100.00
55066;BME280;40964;42.114;24.220;2024-02-26T06:47:37;97488.50;;;9.50;100.00
55066;BME280;40964;42.114;24.220;2024-02-26T06:50:03;97489.41;;;9.44;100.00
55066;BME280;40964;42.114;24.220;2024-02-26T06:52:29;97489.09;;;9.52;100.00
55066;BME280;40964;42.114;24.220;2024-02-26T06:54:54;97476.41;;;9.67;100.00
55066;BME280;40964;42.114;24.220;2024-02-26T06:57:20;97477.75;;;9.77;100.00
55066;BME280;40964;42.114;24.220;2024-02-26T06:59:45;97479.03;;;9.67;100.00
55066;BME280;40964;42.114;24.220;2024-02-26T07:02:13;97488.31;;;9.70;100.00
55066;BME280;40964;42.114;24.220;2024-02-26T07:04:38;97485.47;;;9.72;100.00
55066;BME280;40964;42.114;24.220;2024-02-26T07:07:04;97484.59;;;9.78;100.00
55066;BME280;40964;42.114;24.220;2024-02-26T07:09:29;97484.56;;;9.59;100.00
55066;BME280;40964;42.114;24.220;2024-02-26T07:11:55;97492.38;;;9.48;100.00
55066;BME280;40964;42.114;24.220;2024-02-26T07:14:20;97493.53;;;9.52;100.00
55066;BME280;40964;42.114;24.220;2024-02-26T07:16:46;97491.31;;;9.55;100.00
55066;BME280;40964;42.114;24.220;2024-02-26T07:19:11;97495.22;;;9.46;100.00
55066;BME280;40964;42.114;24.220;2024-02-26T07:21:36;97495.94;;;9.35;100.00
55066;BME280;40964;42.114;24.220;2024-02-26T07:24:02;97488.16;;;9.47;100.00
55066;BME280;40964;42.114;24.220;2024-02-26T07:26:28;97494.66;;;9.62;100.00
55066;BME280;40964;42.114;24.220;2024-02-26T07:28:56;97498.44;;;9.66;100.00
55066;BME280;40964;42.114;24.220;2024-02-26T07:31:21;97502.16;;;9.59;100.00
55066;BME280;40964;42.114;24.220;2024-02-26T07:33:47;97502.91;;;9.66;100.00
55066;BME280;40964;42.114;24.220;2024-02-26T07:36:12;97501.75;;;9.80;100.00
55066;BME280;40964;42.114;24.220;2024-02-26T07:38:38;97501.88;;;9.85;100.00
55066;BME280;40964;42.114;24.220;2024-02-26T07:41:03;97506.41;;;9.96;100.00
55066;BME280;40964;42.114;24.220;2024-02-26T07:43:29;97505.47;;;10.09;100.00
55066;BME280;40964;42.114;24.220;2024-02-26T07:45:54;97505.09;;;10.06;100.00
55066;BME280;40964;42.114;24.220;2024-02-26T07:48:20;97491.88;;;10.12;100.00
55066;BME280;40964;42.114;24.220;2024-02-26T07:50:45;97498.84;;;10.07;100.00
55066;BME280;40964;42.114;24.220;2024-02-26T07:53:11;97506.28;;;10.28;100.00
55066;BME280;40964;42.114;24.220;2024-02-26T07:55:36;97509.44;;;10.48;100.00
55066;BME280;40964;42.114;24.220;2024-02-26T07:58:02;97504.13;;;10.55;100.00
55066;BME280;40964;42.114;24.220;2024-02-26T08:00:28;97511.91;;;10.62;100.00
55066;BME280;40964;42.114;24.220;2024-02-26T08:02:53;97509.41;;;10.67;100.00
55066;BME280;40964;42.114;24.220;2024-02-26T08:05:19;97495.59;;;10.71;99.31
55066;BME280;40964;42.114;24.220;2024-02-26T08:07:44;97492.81;;;10.66;97.92
55066;BME280;40964;42.114;24.220;2024-02-26T08:10:10;97498.66;;;10.68;98.20
55066;BME280;40964;42.114;24.220;2024-02-26T08:12:36;97500.41;;;10.74;98.42
55066;BME280;40964;42.114;24.220;2024-02-26T08:15:02;97500.84;;;10.71;98.60
55066;BME280;40964;42.114;24.220;2024-02-26T08:17:28;97500.09;;;10.83;98.96
55066;BME280;40964;42.114;24.220;2024-02-26T08:19:53;97489.56;;;10.94;98.09
55066;BME280;40964;42.114;24.220;2024-02-26T08:22:18;97506.22;;;11.18;96.87
55066;BME280;40964;42.114;24.220;2024-02-26T08:24:44;97495.03;;;11.34;95.46
55066;BME280;40964;42.114;24.220;2024-02-26T08:27:10;97498.13;;;11.43;93.60
55066;BME280;40964;42.114;24.220;2024-02-26T08:29:35;97503.97;;;11.69;91.78
55066;BME280;40964;42.114;24.220;2024-02-26T08:32:01;97504.63;;;11.76;90.97
55066;BME280;40964;42.114;24.220;2024-02-26T08:34:26;97511.25;;;11.66;86.10
55066;BME280;40964;42.114;24.220;2024-02-26T08:36:52;97516.66;;;11.60;85.82
55066;BME280;40964;42.114;24.220;2024-02-26T08:39:18;97515.16;;;11.64;84.27
55066;BME280;40964;42.114;24.220;2024-02-26T08:41:44;97510.81;;;11.58;85.84
55066;BME280;40964;42.114;24.220;2024-02-26T08:44:10;97503.47;;;11.48;87.44
55066;BME280;40964;42.114;24.220;2024-02-26T08:46:35;97500.97;;;11.65;87.65
55066;BME280;40964;42.114;24.220;2024-02-26T08:49:01;97498.34;;;11.65;88.01
55066;BME280;40964;42.114;24.220;2024-02-26T08:51:26;97500.63;;;11.73;88.67
55066;BME280;40964;42.114;24.220;2024-02-26T08:53:51;97493.78;;;11.60;91.61
55066;BME280;40964;42.114;24.220;2024-02-26T08:56:19;97498.91;;;11.79;91.78
55066;BME280;40964;42.114;24.220;2024-02-26T08:58:45;97493.84;;;12.01;90.88
55066;BME280;40964;42.114;24.220;2024-02-26T09:03:48;97463.28;;;11.88;90.49
55066;BME280;40964;42.114;24.220;2024-02-26T09:06:15;97495.97;;;12.27;90.02
55066;BME280;40964;42.114;24.220;2024-02-26T09:08:40;97482.56;;;12.17;90.03
55066;BME280;40964;42.114;24.220;2024-02-26T09:11:06;97484.28;;;12.23;89.25
55066;BME280;40964;42.114;24.220;2024-02-26T09:13:31;97480.03;;;12.22;89.31
55066;BME280;40964;42.114;24.220;2024-02-26T09:15:57;97477.38;;;12.22;90.83
55066;BME280;40964;42.114;24.220;2024-02-26T09:18:24;97476.22;;;12.30;90.64
55066;BME280;40964;42.114;24.220;2024-02-26T09:20:49;97474.34;;;12.42;90.92
55066;BME280;40964;42.114;24.220;2024-02-26T09:23:15;97469.88;;;12.42;91.21
55066;BME280;40964;42.114;24.220;2024-02-26T09:25:41;97477.50;;;12.27;90.66
55066;BME280;40964;42.114;24.220;2024-02-26T09:28:06;97474.31;;;12.25;90.40
55066;BME280;40964;42.114;24.220;2024-02-26T09:30:31;97463.47;;;12.38;88.92
55066;BME280;40964;42.114;24.220;2024-02-26T09:32:57;97469.41;;;12.45;88.87
55066;BME280;40964;42.114;24.220;2024-02-26T09:35:22;97469.88;;;12.42;89.83
55066;BME280;40964;42.114;24.220;2024-02-26T09:37:48;97465.84;;;12.40;89.04
55066;BME280;40964;42.114;24.220;2024-02-26T09:40:15;97467.06;;;12.49;88.22
55066;BME280;40964;42.114;24.220;2024-02-26T09:42:44;97469.25;;;12.52;88.81
55066;BME280;40964;42.114;24.220;2024-02-26T09:45:21;97462.47;;;12.56;88.69
55066;BME280;40964;42.114;24.220;2024-02-26T09:47:48;97466.06;;;12.50;88.15
55066;BME280;40964;42.114;24.220;2024-02-26T09:50:17;97459.03;;;12.56;87.94
55066;BME280;40964;42.114;24.220;2024-02-26T09:52:43;97444.28;;;12.71;87.07
55066;BME280;40964;42.114;24.220;2024-02-26T09:55:09;97447.41;;;12.85;85.66
55066;BME280;40964;42.114;24.220;2024-02-26T09:57:42;97444.84;;;13.07;85.77
55066;BME280;40964;42.114;24.220;2024-02-26T10:00:15;97443.00;;;13.41;84.56
55066;BME280;40964;42.114;24.220;2024-02-26T10:02:41;97443.66;;;13.48;82.64
55066;BME280;40964;42.114;24.220;2024-02-26T10:05:10;97440.38;;;13.63;83.01
55066;BME280;40964;42.114;24.220;2024-02-26T10:07:37;97442.44;;;13.78;81.68
55066;BME280;40964;42.114;24.220;2024-02-26T10:10:03;97435.28;;;14.00;80.41
55066;BME280;40964;42.114;24.220;2024-02-26T10:12:29;97422.72;;;13.85;79.51
55066;BME280;40964;42.114;24.220;2024-02-26T10:14:56;97430.28;;;13.77;78.80
55066;BME280;40964;42.114;24.220;2024-02-26T10:17:22;97424.13;;;13.93;79.71
55066;BME280;40964;42.114;24.220;2024-02-26T10:19:47;97418.78;;;13.66;80.94
55066;BME280;40964;42.114;24.220;2024-02-26T10:22:13;97420.91;;;13.91;80.79
55066;BME280;40964;42.114;24.220;2024-02-26T10:24:38;97414.47;;;14.04;79.24
55066;BME280;40964;42.114;24.220;2024-02-26T10:27:04;97405.34;;;14.16;78.66
55066;BME280;40964;42.114;24.220;2024-02-26T10:29:31;97407.19;;;14.16;78.46
55066;BME280;40964;42.114;24.220;2024-02-26T10:31:56;97402.41;;;13.91;77.50
55066;BME280;40964;42.114;24.220;2024-02-26T10:34:22;97415.25;;;14.04;78.71
55066;BME280;40964;42.114;24.220;2024-02-26T10:36:49;97408.25;;;14.15;78.93
55066;BME280;40964;42.114;24.220;2024-02-26T10:39:14;97410.63;;;14.16;77.88
55066;BME280;40964;42.114;24.220;2024-02-26T10:41:44;97404.72;;;14.09;77.57
55066;BME280;40964;42.114;24.220;2024-02-26T10:44:11;97405.00;;;14.35;77.04
55066;BME280;40964;42.114;24.220;2024-02-26T10:46:39;97406.28;;;14.05;77.82
55066;BME280;40964;42.114;24.220;2024-02-26T10:49:07;97402.66;;;14.11;77.15
55066;BME280;40964;42.114;24.220;2024-02-26T10:51:37;97394.13;;;14.04;77.90
55066;BME280;40964;42.114;24.220;2024-02-26T10:54:04;97373.25;;;14.08;78.75
55066;BME280;40964;42.114;24.220;2024-02-26T10:56:34;97397.91;;;14.13;77.54
55066;BME280;40964;42.114;24.220;2024-02-26T10:59:00;97391.34;;;13.94;77.43
55066;BME280;40964;42.114;24.220;2024-02-26T11:01:27;97389.50;;;13.95;79.31
55066;BME280;40964;42.114;24.220;2024-02-26T11:03:55;97383.06;;;13.85;79.73
55066;BME280;40964;42.114;24.220;2024-02-26T11:06:21;97380.41;;;13.85;79.63
55066;BME280;40964;42.114;24.220;2024-02-26T11:08:50;97384.94;;;13.90;79.09
55066;BME280;40964;42.114;24.220;2024-02-26T11:11:20;97379.03;;;14.05;80.07
55066;BME280;40964;42.114;24.220;2024-02-26T11:13:47;97372.63;;;14.23;76.67
55066;BME280;40964;42.114;24.220;2024-02-26T11:16:20;97371.28;;;14.20;76.26
55066;BME280;40964;42.114;24.220;2024-02-26T11:18:48;97359.13;;;14.24;77.24
55066;BME280;40964;42.114;24.220;2024-02-26T11:21:17;97368.06;;;14.18;76.79
55066;BME280;40964;42.114;24.220;2024-02-26T11:23:53;97363.66;;;14.29;77.27
55066;BME280;40964;42.114;24.220;2024-02-26T11:26:19;97361.31;;;14.32;76.69
55066;BME280;40964;42.114;24.220;2024-02-26T11:28:46;97359.22;;;14.34;76.41
55066;BME280;40964;42.114;24.220;2024-02-26T11:31:12;97356.03;;;14.32;76.17
55066;BME280;40964;42.114;24.220;2024-02-26T11:33:38;97356.44;;;14.19;76.48
55066;BME280;40964;42.114;24.220;2024-02-26T11:36:09;97354.53;;;14.14;77.44
55066;BME280;40964;42.114;24.220;2024-02-26T11:38:35;97352.25;;;14.23;76.11
55066;BME280;40964;42.114;24.220;2024-02-26T11:41:01;97348.81;;;14.23;77.26
55066;BME280;40964;42.114;24.220;2024-02-26T11:44:01;97342.38;;;14.13;76.90
55066;BME280;40964;42.114;24.220;2024-02-26T11:49:37;97345.53;;;14.42;75.32
55066;BME280;40964;42.114;24.220;2024-02-26T11:52:06;97335.66;;;14.33;75.91
55066;BME280;40964;42.114;24.220;2024-02-26T11:54:52;97336.75;;;14.37;74.72
55066;BME280;40964;42.114;24.220;2024-02-26T11:57:38;97336.19;;;14.30;75.22
55066;BME280;40964;42.114;24.220;2024-02-26T12:02:43;97334.00;;;14.48;74.43
55066;BME280;40964;42.114;24.220;2024-02-26T12:05:15;97332.50;;;14.36;73.85
55066;BME280;40964;42.114;24.220;2024-02-26T12:07:48;97337.97;;;14.51;72.57
55066;BME280;40964;42.114;24.220;2024-02-26T12:10:37;97333.75;;;14.55;72.04
55066;BME280;40964;42.114;24.220;2024-02-26T12:15:43;97328.84;;;14.69;72.03
55066;BME280;40964;42.114;24.220;2024-02-26T12:18:10;97333.56;;;14.62;70.58
55066;BME280;40964;42.114;24.220;2024-02-26T12:20:36;97336.59;;;14.81;71.54
55066;BME280;40964;42.114;24.220;2024-02-26T12:23:03;97340.16;;;14.96;70.82
55066;BME280;40964;42.114;24.220;2024-02-26T12:25:32;97335.66;;;14.97;70.10
55066;BME280;40964;42.114;24.220;2024-02-26T12:27:59;97324.63;;;15.15;68.57
55066;BME280;40964;42.114;24.220;2024-02-26T12:30:25;97330.81;;;15.36;68.16
55066;BME280;40964;42.114;24.220;2024-02-26T12:32:52;97330.63;;;15.53;68.70
55066;BME280;40964;42.114;24.220;2024-02-26T12:35:22;97334.03;;;15.43;67.06
55066;BME280;40964;42.114;24.220;2024-02-26T12:37:48;97332.19;;;15.39;68.13
55066;BME280;40964;42.114;24.220;2024-02-26T12:40:13;97332.97;;;15.39;67.67
55066;BME280;40964;42.114;24.220;2024-02-26T12:42:39;97324.69;;;15.25;68.10
55066;BME280;40964;42.114;24.220;2024-02-26T12:45:10;97316.31;;;15.49;68.05
55066;BME280;40964;42.114;24.220;2024-02-26T12:47:40;97317.06;;;15.39;66.90
55066;BME280;40964;42.114;24.220;2024-02-26T12:50:06;97303.34;;;15.00;69.17
55066;BME280;40964;42.114;24.220;2024-02-26T12:52:33;97319.91;;;15.27;68.15
55066;BME280;40964;42.114;24.220;2024-02-26T12:55:00;97314.88;;;15.26;68.02
55066;BME280;40964;42.114;24.220;2024-02-26T12:57:26;97308.25;;;15.23;69.14
55066;BME280;40964;42.114;24.220;2024-02-26T12:59:54;97299.56;;;14.86;69.20
55066;BME280;40964;42.114;24.220;2024-02-26T13:02:19;97316.38;;;15.01;68.33